createdAt,value
2023-03-12T00:00:33.959Z,19.077
2023-03-12T00:15:35.929Z,18.936
2023-03-12T00:30:39.293Z,19.418
2023-03-12T00:45:41.215Z,19.801
2023-03-12T01:00:43.215Z,18.92
2023-03-12T01:15:45.182Z,19.173
2023-03-12T01:30:47.146Z,19.143
2023-03-12T01:45:49.089Z,19.548
2023-03-12T02:00:51.077Z,19.566
2023-03-12T02:15:53.099Z,20.712
2023-03-12T02:30:55.057Z,20.245
2023-03-12T02:45:57.059Z,19.043
2023-03-12T03:00:59.092Z,19.32
2023-03-12T03:16:00.982Z,18.97
2023-03-12T03:31:02.954Z,19.255
2023-03-12T03:46:06.569Z,18.986
2023-03-12T04:01:08.572Z,18.622
2023-03-12T04:16:10.531Z,18.539
2023-03-12T04:31:12.560Z,18.654
2023-03-12T04:46:14.649Z,19.046
2023-03-12T05:01:16.637Z,18.713
2023-03-12T05:16:18.586Z,18.711
2023-03-12T05:31:20.666Z,18.625
2023-03-12T05:46:22.687Z,18.741
2023-03-12T06:01:24.636Z,18.937
2023-03-12T06:16:26.746Z,18.71
2023-03-12T06:31:28.777Z,19.047
2023-03-12T06:46:30.809Z,18.565
2023-03-12T07:01:32.883Z,19.016
2023-03-12T07:16:35.003Z,18.363
2023-03-12T07:31:36.948Z,18.877
2023-03-12T07:46:39.010Z,18.342
2023-03-12T08:01:41.060Z,18.598
2023-03-12T08:16:43.182Z,18.19
2023-03-12T08:32:01.499Z,18.683
2023-03-12T08:47:05.915Z,18.246
2023-03-12T09:02:07.811Z,18.672
2023-03-12T09:17:09.774Z,18.339
2023-03-12T09:32:11.706Z,18.47
2023-03-12T09:47:13.769Z,18.314
2023-03-12T10:02:15.711Z,18.636
2023-03-12T10:17:17.588Z,18.272
2023-03-12T10:32:19.500Z,18.492
2023-03-12T10:47:21.421Z,18.305
2023-03-12T11:02:23.246Z,18.319
2023-03-12T11:17:25.068Z,18.17
2023-03-12T11:32:26.915Z,18.607
2023-03-12T11:47:28.855Z,18.071
2023-03-12T12:02:30.761Z,18.556
2023-03-12T12:17:32.779Z,18.111
2023-03-12T12:32:34.694Z,18.449
2023-03-12T12:47:36.564Z,18.041
2023-03-12T13:02:38.435Z,18.424
2023-03-12T13:17:40.460Z,17.974
2023-03-12T13:32:42.486Z,18.676
2023-03-12T13:47:44.617Z,17.995
2023-03-12T14:02:46.567Z,18.396
2023-03-12T14:17:48.480Z,18.041
2023-03-12T14:32:50.421Z,18.339
2023-03-12T14:47:52.473Z,18.368
2023-03-12T15:02:54.432Z,18.533
2023-03-12T15:17:56.342Z,18.304
2023-03-12T15:32:58.390Z,18.761
2023-03-12T15:48:00.475Z,17.959
2023-03-12T16:03:02.364Z,18.002
2023-03-12T16:18:05.224Z,18.145
2023-03-12T16:33:09.132Z,18.048
2023-03-12T16:48:11.513Z,18.01
2023-03-12T17:03:13.402Z,18.048
2023-03-12T17:18:15.533Z,18.28
2023-03-12T17:33:17.492Z,18.588
2023-03-12T17:48:19.437Z,19.061
2023-03-12T18:03:21.464Z,19.005
2023-03-12T18:18:23.482Z,19.298
2023-03-12T18:33:25.377Z,19.414
2023-03-12T18:48:27.355Z,19.597
2023-03-12T19:03:29.249Z,20.333
2023-03-12T19:18:31.164Z,19.667
2023-03-12T19:33:33.327Z,19.613
2023-03-12T19:48:35.347Z,19.536
2023-03-12T20:03:37.318Z,19.429
2023-03-12T20:18:39.275Z,19.922
2023-03-12T20:33:41.176Z,20.597
2023-03-12T20:48:43.092Z,20.665
2023-03-12T21:03:45.038Z,20.535
2023-03-12T21:18:46.954Z,20.402
2023-03-12T21:33:49.153Z,20.343
2023-03-12T21:48:51.288Z,20.525
2023-03-12T22:03:53.376Z,20.661
2023-03-12T22:18:55.322Z,20.307
2023-03-12T22:33:57.343Z,20.284
2023-03-12T22:48:59.294Z,20.242
2023-03-12T23:04:01.256Z,20.173
2023-03-12T23:19:03.358Z,20.128
2023-03-12T23:34:05.346Z,20.147
2023-03-12T23:49:07.405Z,20.279
